sensor_id;sensor_type;location;lat;lon;timestamp;pressure;altitude;pressure_sealevel;temperature;humidity
70521;BME280;58442;52.716;23.560;2023-01-29T00:01:07;102128.42;;;0.20;72.92
70521;BME280;58442;52.716;23.560;2023-01-29T00:03:14;102125.53;;;0.21;72.84
70521;BME280;58442;52.716;23.560;2023-01-29T00:05:16;102127.39;;;0.21;72.74
70521;BME280;58442;52.716;23.560;2023-01-29T00:07:18;102123.66;;;0.22;72.79
70521;BME280;58442;52.716;23.560;2023-01-29T00:09:22;102112.72;;;0.23;72.77
70521;BME280;58442;52.716;23.560;2023-01-29T00:11:27;102118.88;;;0.24;72.62
70521;BME280;58442;52.716;23.560;2023-01-29T00:13:30;102112.98;;;0.22;72.56
70521;BME280;58442;52.716;23.560;2023-01-29T00:15:31;102112.16;;;0.21;72.55
70521;BME280;58442;52.716;23.560;2023-01-29T00:17:32;102109.95;;;0.18;72.47
70521;BME280;58442;52.716;23.560;2023-01-29T00:19:42;102117.42;;;0.16;72.47
70521;BME280;58442;52.716;23.560;2023-01-29T00:21:44;102117.89;;;0.13;72.39
70521;BME280;58442;52.716;23.560;2023-01-29T00:23:45;102110.13;;;0.12;72.34
70521;BME280;58442;52.716;23.560;2023-01-29T00:25:47;102105.83;;;0.11;72.21
70521;BME280;58442;52.716;23.560;2023-01-29T00:27:57;102110.87;;;0.07;72.24
70521;BME280;58442;52.716;23.560;2023-01-29T00:29:59;102105.74;;;0.06;72.13
70521;BME280;58442;52.716;23.560;2023-01-29T00:32:10;102101.46;;;0.05;72.17
70521;BME280;58442;52.716;23.560;2023-01-29T00:34:14;102107.86;;;0.04;72.15
70521;BME280;58442;52.716;23.560;2023-01-29T00:36:21;102110.78;;;0.02;72.13
70521;BME280;58442;52.716;23.560;2023-01-29T00:38:25;102108.36;;;0.01;72.04
70521;BME280;58442;52.716;23.560;2023-01-29T00:40:27;102101.37;;;-0.01;72.09
70521;BME280;58442;52.716;23.560;2023-01-29T00:42:36;102093.60;;;-0.02;72.03
70521;BME280;58442;52.716;23.560;2023-01-29T00:44:55;102093.84;;;-0.04;71.98
70521;BME280;58442;52.716;23.560;2023-01-29T00:47:03;102089.80;;;-0.06;71.97
70521;BME280;58442;52.716;23.560;2023-01-29T00:49:18;102095.38;;;-0.08;71.94
70521;BME280;58442;52.716;23.560;2023-01-29T00:51:30;102092.14;;;-0.10;71.86
70521;BME280;58442;52.716;23.560;2023-01-29T00:53:31;102087.85;;;-0.11;71.80
70521;BME280;58442;52.716;23.560;2023-01-29T00:55:33;102082.50;;;-0.11;71.85
70521;BME280;58442;52.716;23.560;2023-01-29T00:57:37;102078.22;;;-0.12;71.79
70521;BME280;58442;52.716;23.560;2023-01-29T00:59:39;102075.80;;;-0.13;71.64
70521;BME280;58442;52.716;23.560;2023-01-29T01:01:43;102085.90;;;-0.15;71.65
70521;BME280;58442;52.716;23.560;2023-01-29T01:03:56;102077.33;;;-0.17;71.63
70521;BME280;58442;52.716;23.560;2023-01-29T01:06:05;102075.71;;;-0.18;71.72
70521;BME280;58442;52.716;23.560;2023-01-29T01:08:12;102078.38;;;-0.18;71.69
70521;BME280;58442;52.716;23.560;2023-01-29T01:10:34;102075.45;;;-0.17;71.68
70521;BME280;58442;52.716;23.560;2023-01-29T01:12:37;102064.77;;;-0.17;71.61
70521;BME280;58442;52.716;23.560;2023-01-29T01:14:42;102064.77;;;-0.17;71.51
70521;BME280;58442;52.716;23.560;2023-01-29T01:16:44;102058.63;;;-0.17;71.59
70521;BME280;58442;52.716;23.560;2023-01-29T01:18:49;102055.95;;;-0.17;71.56
70521;BME280;58442;52.716;23.560;2023-01-29T01:20:56;102061.04;;;-0.16;71.47
70521;BME280;58442;52.716;23.560;2023-01-29T01:22:59;102050.35;;;-0.16;71.36
70521;BME280;58442;52.716;23.560;2023-01-29T01:25:00;102050.35;;;-0.16;71.28
70521;BME280;58442;52.716;23.560;2023-01-29T01:27:07;102047.94;;;-0.17;71.24
70521;BME280;58442;52.716;23.560;2023-01-29T01:29:10;102057.81;;;-0.18;71.18
70521;BME280;58442;52.716;23.560;2023-01-29T01:31:18;102072.23;;;-0.19;71.12
70521;BME280;58442;52.716;23.560;2023-01-29T01:33:24;102068.16;;;-0.21;71.12
70521;BME280;58442;52.716;23.560;2023-01-29T01:35:25;102073.50;;;-0.21;71.14
70521;BME280;58442;52.716;23.560;2023-01-29T01:37:27;102065.49;;;-0.21;71.01
70521;BME280;58442;52.716;23.560;2023-01-29T01:39:28;102068.16;;;-0.21;70.97
70521;BME280;58442;52.716;23.560;2023-01-29T01:41:30;102067.35;;;-0.22;71.00
70521;BME280;58442;52.716;23.560;2023-01-29T01:45:55;102063.07;;;-0.23;70.95
70521;BME280;58442;52.716;23.560;2023-01-29T01:48:04;102069.46;;;-0.24;70.93
70521;BME280;58442;52.716;23.560;2023-01-29T01:50:16;102066.79;;;-0.24;70.98
70521;BME280;58442;52.716;23.560;2023-01-29T01:52:19;102055.05;;;-0.23;70.90
70521;BME280;58442;52.716;23.560;2023-01-29T01:54:27;102050.77;;;-0.24;70.93
70521;BME280;58442;52.716;23.560;2023-01-29T01:56:38;102053.99;;;-0.22;70.92
70521;BME280;58442;52.716;23.560;2023-01-29T01:58:48;102059.34;;;-0.22;70.80
70521;BME280;58442;52.716;23.560;2023-01-29T02:00:58;102058.78;;;-0.24;70.79
70521;BME280;58442;52.716;23.560;2023-01-29T02:03:00;102053.44;;;-0.24;70.87
70521;BME280;58442;52.716;23.560;2023-01-29T02:05:14;102057.97;;;-0.24;70.94
70521;BME280;58442;52.716;23.560;2023-01-29T02:07:33;102045.43;;;-0.24;70.88
70521;BME280;58442;52.716;23.560;2023-01-29T02:12:10;102052.38;;;-0.23;70.88
70521;BME280;58442;52.716;23.560;2023-01-29T02:14:11;102057.26;;;-0.20;70.82
70521;BME280;58442;52.716;23.560;2023-01-29T02:16:13;102062.09;;;-0.17;70.73
70521;BME280;58442;52.716;23.560;2023-01-29T02:18:17;102066.39;;;-0.16;70.71
70521;BME280;58442;52.716;23.560;2023-01-29T02:20:26;102062.91;;;-0.16;70.74
70521;BME280;58442;52.716;23.560;2023-01-29T02:27:02;102070.12;;;-0.17;70.73
70521;BME280;58442;52.716;23.560;2023-01-29T02:29:12;102063.16;;;-0.18;70.74
70521;BME280;58442;52.716;23.560;2023-01-29T02:31:30;102060.48;;;-0.18;70.74
70521;BME280;58442;52.716;23.560;2023-01-29T02:36:19;102061.61;;;-0.14;70.76
70521;BME280;58442;52.716;23.560;2023-01-29T02:40:45;102061.38;;;-0.12;70.60
70521;BME280;58442;52.716;23.560;2023-01-29T02:43:05;102050.91;;;-0.14;70.62
70521;BME280;58442;52.716;23.560;2023-01-29T02:50:14;102060.58;;;-0.13;70.63
70521;BME280;58442;52.716;23.560;2023-01-29T02:52:25;102057.91;;;-0.13;70.61
70521;BME280;58442;52.716;23.560;2023-01-29T02:56:52;102049.63;;;-0.11;70.58
70521;BME280;58442;52.716;23.560;2023-01-29T02:59:00;102045.35;;;-0.12;70.60
70521;BME280;58442;52.716;23.560;2023-01-29T03:03:25;102036.75;;;-0.14;70.64
70521;BME280;58442;52.716;23.560;2023-01-29T03:07:59;102030.59;;;-0.15;70.58
70521;BME280;58442;52.716;23.560;2023-01-29T03:10:22;102033.27;;;-0.15;70.63
70521;BME280;58442;52.716;23.560;2023-01-29T03:12:37;102019.10;;;-0.15;70.64
70521;BME280;58442;52.716;23.560;2023-01-29T03:14:40;102018.85;;;-0.14;70.64
70521;BME280;58442;52.716;23.560;2023-01-29T03:16:58;102019.69;;;-0.13;70.59
70521;BME280;58442;52.716;23.560;2023-01-29T03:19:04;102019.69;;;-0.13;70.61
70521;BME280;58442;52.716;23.560;2023-01-29T03:21:12;102017.83;;;-0.13;70.67
70521;BME280;58442;52.716;23.560;2023-01-29T03:23:30;102016.18;;;-0.14;70.65
70521;BME280;58442;52.716;23.560;2023-01-29T03:25:45;102015.38;;;-0.14;70.67
70521;BME280;58442;52.716;23.560;2023-01-29T03:28:12;102010.53;;;-0.17;70.69
70521;BME280;58442;52.716;23.560;2023-01-29T03:30:29;102011.84;;;-0.20;70.78
70521;BME280;58442;52.716;23.560;2023-01-29T03:32:50;102008.58;;;-0.22;70.85
70521;BME280;58442;52.716;23.560;2023-01-29T03:34:57;102013.92;;;-0.22;70.87
70521;BME280;58442;52.716;23.560;2023-01-29T03:37:21;102012.55;;;-0.24;70.89
70521;BME280;58442;52.716;23.560;2023-01-29T03:39:21;102012.00;;;-0.26;70.98
70521;BME280;58442;52.716;23.560;2023-01-29T03:41:27;102023.50;;;-0.26;71.05
70521;BME280;58442;52.716;23.560;2023-01-29T03:48:35;102016.53;;;-0.27;71.09
70521;BME280;58442;52.716;23.560;2023-01-29T03:57:38;102001.06;;;-0.25;71.18
70521;BME280;58442;52.716;23.560;2023-01-29T04:02:26;101991.49;;;-0.21;71.17
70521;BME280;58442;52.716;23.560;2023-01-29T04:04:42;101989.41;;;-0.19;71.22
70521;BME280;58442;52.716;23.560;2023-01-29T04:06:48;101992.39;;;-0.15;71.15
70521;BME280;58442;52.716;23.560;2023-01-29T04:09:02;101987.38;;;-0.12;71.01
70521;BME280;58442;52.716;23.560;2023-01-29T04:11:10;101986.31;;;-0.11;71.00
70521;BME280;58442;52.716;23.560;2023-01-29T04:15:39;101979.66;;;-0.08;70.97
70521;BME280;58442;52.716;23.560;2023-01-29T04:17:48;101973.51;;;-0.09;71.00
70521;BME280;58442;52.716;23.560;2023-01-29T04:20:01;101977.25;;;-0.10;71.04
70521;BME280;58442;52.716;23.560;2023-01-29T04:22:12;101980.98;;;-0.11;71.08
70521;BME280;58442;52.716;23.560;2023-01-29T04:24:16;101977.75;;;-0.13;71.12
70521;BME280;58442;52.716;23.560;2023-01-29T04:33:10;101983.09;;;-0.13;71.23
70521;BME280;58442;52.716;23.560;2023-01-29T04:35:31;101977.97;;;-0.14;71.27
70521;BME280;58442;52.716;23.560;2023-01-29T04:42:40;101981.16;;;-0.17;71.47
70521;BME280;58442;52.716;23.560;2023-01-29T04:47:20;101974.99;;;-0.18;71.53
70521;BME280;58442;52.716;23.560;2023-01-29T04:49:45;101981.40;;;-0.19;71.53
70521;BME280;58442;52.716;23.560;2023-01-29T04:56:41;101975.46;;;-0.21;71.66
70521;BME280;58442;52.716;23.560;2023-01-29T04:59:04;101975.72;;;-0.22;71.67
70521;BME280;58442;52.716;23.560;2023-01-29T05:01:11;101977.33;;;-0.21;71.73
70521;BME280;58442;52.716;23.560;2023-01-29T05:03:14;101974.43;;;-0.20;71.72
70521;BME280;58442;52.716;23.560;2023-01-29T05:05:27;101973.38;;;-0.19;71.71
70521;BME280;58442;52.716;23.560;2023-01-29T05:07:29;101965.62;;;-0.20;71.68
70521;BME280;58442;52.716;23.560;2023-01-29T05:09:41;101962.95;;;-0.20;71.73
70521;BME280;58442;52.716;23.560;2023-01-29T05:11:45;101969.32;;;-0.21;71.68
70521;BME280;58442;52.716;23.560;2023-01-29T05:13:48;101967.45;;;-0.21;71.72
70521;BME280;58442;52.716;23.560;2023-01-29T05:15:56;101963.97;;;-0.21;71.73
70521;BME280;58442;52.716;23.560;2023-01-29T05:18:00;101966.43;;;-0.20;71.65
70521;BME280;58442;52.716;23.560;2023-01-29T05:20:16;101959.22;;;-0.19;71.66
70521;BME280;58442;52.716;23.560;2023-01-29T05:22:18;101953.87;;;-0.19;71.67
70521;BME280;58442;52.716;23.560;2023-01-29T05:24:28;101956.29;;;-0.18;71.62
70521;BME280;58442;52.716;23.560;2023-01-29T05:26:30;101954.68;;;-0.19;71.56
70521;BME280;58442;52.716;23.560;2023-01-29T05:28:43;101946.91;;;-0.20;71.62
70521;BME280;58442;52.716;23.560;2023-01-29T05:30:54;101954.68;;;-0.19;71.63
70521;BME280;58442;52.716;23.560;2023-01-29T05:35:14;101949.34;;;-0.19;71.56
70521;BME280;58442;52.716;23.560;2023-01-29T05:37:15;101954.68;;;-0.19;71.63
70521;BME280;58442;52.716;23.560;2023-01-29T05:39:25;101946.91;;;-0.20;71.62
70521;BME280;58442;52.716;23.560;2023-01-29T05:41:26;101944.47;;;-0.22;71.73
70521;BME280;58442;52.716;23.560;2023-01-29T05:43:30;101954.34;;;-0.22;71.77
70521;BME280;58442;52.716;23.560;2023-01-29T05:45:59;101954.93;;;-0.20;71.81
70521;BME280;58442;52.716;23.560;2023-01-29T05:47:57;101952.02;;;-0.19;71.78
70521;BME280;58442;52.716;23.560;2023-01-29T05:49:58;101955.48;;;-0.18;71.71
70521;BME280;58442;52.716;23.560;2023-01-29T05:52:00;101961.08;;;-0.20;71.76
70521;BME280;58442;52.716;23.560;2023-01-29T05:54:01;101957.83;;;-0.22;71.86
70521;BME280;58442;52.716;23.560;2023-01-29T05:56:04;101962.11;;;-0.21;71.87
70521;BME280;58442;52.716;23.560;2023-01-29T05:58:12;101957.60;;;-0.20;71.84
70521;BME280;58442;52.716;23.560;2023-01-29T06:00:21;101957.83;;;-0.22;71.92
70521;BME280;58442;52.716;23.560;2023-01-29T06:02:23;101958.41;;;-0.20;71.87
70521;BME280;58442;52.716;23.560;2023-01-29T06:04:24;101957.60;;;-0.20;71.82
70521;BME280;58442;52.716;23.560;2023-01-29T06:06:27;101971.18;;;-0.22;71.76
70521;BME280;58442;52.716;23.560;2023-01-29T06:08:29;101965.29;;;-0.24;71.88
70521;BME280;58442;52.716;23.560;2023-01-29T06:10:30;101972.74;;;-0.26;71.86
70521;BME280;58442;52.716;23.560;2023-01-29T06:12:34;101976.47;;;-0.27;71.96
70521;BME280;58442;52.716;23.560;2023-01-29T06:14:42;101973.21;;;-0.29;71.98
70521;BME280;58442;52.716;23.560;2023-01-29T06:16:44;101966.51;;;-0.32;72.05
70521;BME280;58442;52.716;23.560;2023-01-29T06:18:48;101975.57;;;-0.33;72.13
70521;BME280;58442;52.716;23.560;2023-01-29T06:20:49;101977.20;;;-0.32;72.14
70521;BME280;58442;52.716;23.560;2023-01-29T06:22:57;101975.07;;;-0.30;72.12
70521;BME280;58442;52.716;23.560;2023-01-29T06:24:59;101975.07;;;-0.30;72.08
70521;BME280;58442;52.716;23.560;2023-01-29T06:27:00;101974.02;;;-0.29;72.13
70521;BME280;58442;52.716;23.560;2023-01-29T06:29:04;101977.27;;;-0.26;72.11
70521;BME280;58442;52.716;23.560;2023-01-29T06:31:16;101969.81;;;-0.24;72.10
70521;BME280;58442;52.716;23.560;2023-01-29T06:33:34;101971.98;;;-0.21;72.04
70521;BME280;58442;52.716;23.560;2023-01-29T06:35:35;101975.80;;;-0.17;71.98
70521;BME280;58442;52.716;23.560;2023-01-29T06:37:37;101969.40;;;-0.16;71.93
70521;BME280;58442;52.716;23.560;2023-01-29T06:39:38;101971.82;;;-0.15;71.91
70521;BME280;58442;52.716;23.560;2023-01-29T06:41:55;101970.77;;;-0.14;71.95
70521;BME280;58442;52.716;23.560;2023-01-29T06:44:00;101967.62;;;-0.11;71.97
70521;BME280;58442;52.716;23.560;2023-01-29T06:46:02;101964.69;;;-0.09;71.90
70521;BME280;58442;52.716;23.560;2023-01-29T06:48:03;101963.41;;;-0.07;71.87
70521;BME280;58442;52.716;23.560;2023-01-29T06:50:09;101966.64;;;-0.05;71.90
70521;BME280;58442;52.716;23.560;2023-01-29T06:52:11;101965.59;;;-0.04;71.88
70521;BME280;58442;52.716;23.560;2023-01-29T06:54:14;101963.46;;;-0.02;71.93
70521;BME280;58442;52.716;23.560;2023-01-29T06:56:16;101958.70;;;0.01;71.96
70521;BME280;58442;52.716;23.560;2023-01-29T06:58:21;101953.36;;;0.01;71.90
70521;BME280;58442;52.716;23.560;2023-01-29T07:00:25;101951.49;;;0.01;71.94
70521;BME280;58442;52.716;23.560;2023-01-29T07:02:31;101955.52;;;0.04;71.95
70521;BME280;58442;52.716;23.560;2023-01-29T07:04:35;101955.27;;;0.05;71.87
70521;BME280;58442;52.716;23.560;2023-01-29T07:06:44;101956.08;;;0.06;71.82
70521;BME280;58442;52.716;23.560;2023-01-29T07:08:52;101952.05;;;0.03;71.82
70521;BME280;58442;52.716;23.560;2023-01-29T07:11:00;101957.40;;;0.03;71.91
70521;BME280;58442;52.716;23.560;2023-01-29T07:13:04;101956.59;;;0.03;71.94
70521;BME280;58442;52.716;23.560;2023-01-29T07:15:06;101949.13;;;0.05;71.91
70521;BME280;58442;52.716;23.560;2023-01-29T07:17:08;101954.45;;;0.05;71.90
70521;BME280;58442;52.716;23.560;2023-01-29T07:19:09;101950.73;;;0.06;71.93
70521;BME280;58442;52.716;23.560;2023-01-29T07:21:10;101941.66;;;0.07;71.88
70521;BME280;58442;52.716;23.560;2023-01-29T07:23:14;101933.41;;;0.08;71.90
70521;BME280;58442;52.716;23.560;2023-01-29T07:25:22;101937.45;;;0.11;71.88
70521;BME280;58442;52.716;23.560;2023-01-29T07:27:24;101936.39;;;0.12;71.84
70521;BME280;58442;52.716;23.560;2023-01-29T07:29:26;101935.33;;;0.13;71.82
70521;BME280;58442;52.716;23.560;2023-01-29T07:31:29;101930.78;;;0.13;71.88
70521;BME280;58442;52.716;23.560;2023-01-29T07:33:31;101931.91;;;0.17;71.88
70521;BME280;58442;52.716;23.560;2023-01-29T07:35:41;101928.51;;;0.22;71.72
70521;BME280;58442;52.716;23.560;2023-01-29T07:37:42;101923.72;;;0.24;71.66
70521;BME280;58442;52.716;23.560;2023-01-29T07:39:44;101922.66;;;0.25;71.60
70521;BME280;58442;52.716;23.560;2023-01-29T07:41:49;101921.59;;;0.26;71.63
70521;BME280;58442;52.716;23.560;2023-01-29T07:43:51;101922.17;;;0.28;71.62
70521;BME280;58442;52.716;23.560;2023-01-29T07:45:52;101927.81;;;0.32;71.64
70521;BME280;58442;52.716;23.560;2023-01-29T07:47:59;101931.29;;;0.32;71.53
70521;BME280;58442;52.716;23.560;2023-01-29T07:50:00;101930.23;;;0.33;71.46
70521;BME280;58442;52.716;23.560;2023-01-29T07:52:07;101927.81;;;0.32;71.44
70521;BME280;58442;52.716;23.560;2023-01-29T07:54:11;101924.59;;;0.30;71.48
70521;BME280;58442;52.716;23.560;2023-01-29T07:56:14;101922.98;;;0.29;71.51
70521;BME280;58442;52.716;23.560;2023-01-29T07:58:15;101920.30;;;0.29;71.53
70521;BME280;58442;52.716;23.560;2023-01-29T08:00:23;101926.49;;;0.34;71.47
70521;BME280;58442;52.716;23.560;2023-01-29T08:02:29;101923.59;;;0.36;71.45
70521;BME280;58442;52.716;23.560;2023-01-29T08:04:31;101926.57;;;0.39;71.47
70521;BME280;58442;52.716;23.560;2023-01-29T08:06:35;101912.46;;;0.44;71.42
70521;BME280;58442;52.716;23.560;2023-01-29T08:08:36;101913.33;;;0.49;71.31
70521;BME280;58442;52.716;23.560;2023-01-29T08:10:39;101903.98;;;0.52;71.23
70521;BME280;58442;52.716;23.560;2023-01-29T08:12:44;101898.38;;;0.53;71.25
70521;BME280;58442;52.716;23.560;2023-01-29T08:14:45;101902.18;;;0.58;71.19
70521;BME280;58442;52.716;23.560;2023-01-29T08:16:47;101900.05;;;0.60;71.15
70521;BME280;58442;52.716;23.560;2023-01-29T08:18:51;101900.05;;;0.60;71.10
70521;BME280;58442;52.716;23.560;2023-01-29T08:21:00;101897.38;;;0.60;71.19
70521;BME280;58442;52.716;23.560;2023-01-29T08:23:04;101904.11;;;0.62;71.22
70521;BME280;58442;52.716;23.560;2023-01-29T08:25:07;101908.68;;;0.67;71.21
70521;BME280;58442;52.716;23.560;2023-01-29T08:27:08;101904.14;;;0.67;71.18
70521;BME280;58442;52.716;23.560;2023-01-29T08:29:14;101908.20;;;0.70;71.20
70521;BME280;58442;52.716;23.560;2023-01-29T08:31:17;101901.78;;;0.71;71.17
70521;BME280;58442;52.716;23.560;2023-01-29T08:33:25;101899.65;;;0.73;71.14
70521;BME280;58442;52.716;23.560;2023-01-29T08:35:29;101896.48;;;0.76;71.02
70521;BME280;58442;52.716;23.560;2023-01-29T08:37:30;101898.11;;;0.77;70.98
70521;BME280;58442;52.716;23.560;2023-01-29T08:39:31;101892.98;;;0.75;70.96
70521;BME280;58442;52.716;23.560;2023-01-29T08:41:33;101894.85;;;0.75;71.06
70521;BME280;58442;52.716;23.560;2023-01-29T08:43:34;101900.77;;;0.77;71.07
70521;BME280;58442;52.716;23.560;2023-01-29T08:45:44;101897.59;;;0.80;71.03
70521;BME280;58442;52.716;23.560;2023-01-29T08:47:49;101906.73;;;0.84;70.96
70521;BME280;58442;52.716;23.560;2023-01-29T08:49:53;101897.38;;;0.87;70.95
70521;BME280;58442;52.716;23.560;2023-01-29T08:51:57;101897.70;;;0.90;70.90
70521;BME280;58442;52.716;23.560;2023-01-29T08:53:59;101900.91;;;0.92;70.87
70521;BME280;58442;52.716;23.560;2023-01-29T08:56:01;101897.17;;;0.93;70.75
70521;BME280;58442;52.716;23.560;2023-01-29T08:58:09;101898.79;;;0.94;70.77
70521;BME280;58442;52.716;23.560;2023-01-29T09:00:17;101895.04;;;0.95;70.71
70521;BME280;58442;52.716;23.560;2023-01-29T09:02:19;101890.26;;;0.97;70.66
70521;BME280;58442;52.716;23.560;2023-01-29T09:04:21;101896.69;;;0.96;70.57
70521;BME280;58442;52.716;23.560;2023-01-29T09:06:22;101887.02;;;0.95;70.68
70521;BME280;58442;52.716;23.560;2023-01-29T09:08:23;101884.34;;;0.95;70.70
70521;BME280;58442;52.716;23.560;2023-01-29T09:10:29;101878.75;;;0.97;70.63
70521;BME280;58442;52.716;23.560;2023-01-29T09:12:33;101876.57;;;0.94;70.59
70521;BME280;58442;52.716;23.560;2023-01-29T09:14:37;101870.16;;;0.95;70.69
70521;BME280;58442;52.716;23.560;2023-01-29T09:16:39;101860.02;;;0.97;70.69
70521;BME280;58442;52.716;23.560;2023-01-29T09:18:45;101869.40;;;0.99;70.71
70521;BME280;58442;52.716;23.560;2023-01-29T09:20:50;101863.77;;;1.01;70.72
70521;BME280;58442;52.716;23.560;2023-01-29T09:22:51;101868.88;;;1.02;70.61
70521;BME280;58442;52.716;23.560;2023-01-29T09:24:56;101864.59;;;1.01;70.62
70521;BME280;58442;52.716;23.560;2023-01-29T09:29:21;101849.59;;;1.00;70.61
70521;BME280;58442;52.716;23.560;2023-01-29T09:31:29;101845.59;;;1.03;70.67
70521;BME280;58442;52.716;23.560;2023-01-29T09:33:30;101842.69;;;1.09;70.64
70521;BME280;58442;52.716;23.560;2023-01-29T09:35:41;101836.32;;;1.16;70.59
70521;BME280;58442;52.716;23.560;2023-01-29T09:37:48;101833.19;;;1.24;70.45
70521;BME280;58442;52.716;23.560;2023-01-29T09:39:58;101829.45;;;1.30;70.36
70521;BME280;58442;52.716;23.560;2023-01-29T09:42:08;101820.38;;;1.36;70.32
70521;BME280;58442;52.716;23.560;2023-01-29T09:48:38;101816.99;;;1.51;69.96
70521;BME280;58442;52.716;23.560;2023-01-29T09:50:46;101815.68;;;1.53;69.88
70521;BME280;58442;52.716;23.560;2023-01-29T09:57:57;101811.96;;;1.59;69.90
70521;BME280;58442;52.716;23.560;2023-01-29T10:00:04;101806.88;;;1.58;69.94
70521;BME280;58442;52.716;23.560;2023-01-29T10:06:53;101789.40;;;1.50;70.24
70521;BME280;58442;52.716;23.560;2023-01-29T10:18:09;101778.80;;;1.23;70.80
70521;BME280;58442;52.716;23.560;2023-01-29T10:25:00;101768.32;;;1.17;71.19
70521;BME280;58442;52.716;23.560;2023-01-29T10:29:19;101771.26;;;1.15;71.35
70521;BME280;58442;52.716;23.560;2023-01-29T10:33:53;101772.87;;;1.16;71.51
70521;BME280;58442;52.716;23.560;2023-01-29T10:36:01;101773.13;;;1.15;71.52
70521;BME280;58442;52.716;23.560;2023-01-29T10:42:52;101764.30;;;1.14;71.84
70521;BME280;58442;52.716;23.560;2023-01-29T10:47:39;101759.25;;;1.18;71.83
70521;BME280;58442;52.716;23.560;2023-01-29T10:50:02;101758.17;;;1.19;71.84
70521;BME280;58442;52.716;23.560;2023-01-29T10:52:21;101749.61;;;1.22;71.79
70521;BME280;58442;52.716;23.560;2023-01-29T10:55:02;101752.59;;;1.25;71.76
70521;BME280;58442;52.716;23.560;2023-01-29T11:01:40;101729.80;;;1.23;71.78
70521;BME280;58442;52.716;23.560;2023-01-29T11:03:42;101727.13;;;1.23;71.85
70521;BME280;58442;52.716;23.560;2023-01-29T11:08:07;101716.17;;;1.24;71.84
70521;BME280;58442;52.716;23.560;2023-01-29T11:10:13;101720.47;;;1.25;71.85
70521;BME280;58442;52.716;23.560;2023-01-29T11:12:27;101715.64;;;1.27;71.87
70521;BME280;58442;52.716;23.560;2023-01-29T11:14:44;101715.38;;;1.29;71.86
70521;BME280;58442;52.716;23.560;2023-01-29T11:16:56;101705.73;;;1.28;71.81
70521;BME280;58442;52.716;23.560;2023-01-29T11:19:00;101708.95;;;1.30;71.81
70521;BME280;58442;52.716;23.560;2023-01-29T11:21:04;101699.88;;;1.31;71.79
70521;BME280;58442;52.716;23.560;2023-01-29T11:25:19;101694.52;;;1.31;71.81
70521;BME280;58442;52.716;23.560;2023-01-29T11:27:25;101693.71;;;1.30;71.87
70521;BME280;58442;52.716;23.560;2023-01-29T11:31:43;101681.66;;;1.33;71.85
70521;BME280;58442;52.716;23.560;2023-01-29T11:33:45;101686.23;;;1.32;71.82
70521;BME280;58442;52.716;23.560;2023-01-29T11:35:56;101686.23;;;1.32;71.81
70521;BME280;58442;52.716;23.560;2023-01-29T11:38:05;101678.45;;;1.31;71.79
70521;BME280;58442;52.716;23.560;2023-01-29T11:42:22;101659.70;;;1.31;71.86
70521;BME280;58442;52.716;23.560;2023-01-29T11:44:40;101666.14;;;1.35;71.83
70521;BME280;58442;52.716;23.560;2023-01-29T11:46:40;101659.70;;;1.36;71.79
70521;BME280;58442;52.716;23.560;2023-01-29T11:48:44;101666.43;;;1.39;71.78
70521;BME280;58442;52.716;23.560;2023-01-29T11:50:54;101662.67;;;1.40;71.76
70521;BME280;58442;52.716;23.560;2023-01-29T11:53:00;101662.41;;;1.41;71.79
70521;BME280;58442;52.716;23.560;2023-01-29T11:55:10;101663.21;;;1.42;71.70
70521;BME280;58442;52.716;23.560;2023-01-29T11:57:26;101663.48;;;1.40;71.72
70521;BME280;58442;52.716;23.560;2023-01-29T11:59:43;101662.14;;;1.38;71.79
70521;BME280;58442;52.716;23.560;2023-01-29T12:04:23;101654.34;;;1.36;71.81
70521;BME280;58442;52.716;23.560;2023-01-29T12:06:35;101651.13;;;1.34;71.85
70521;BME280;58442;52.716;23.560;2023-01-29T12:08:38;101639.88;;;1.32;71.91
70521;BME280;58442;52.716;23.560;2023-01-29T12:10:40;101647.92;;;1.32;71.92
70521;BME280;58442;52.716;23.560;2023-01-29T12:12:43;101632.36;;;1.29;71.95
70521;BME280;58442;52.716;23.560;2023-01-29T12:14:44;101630.76;;;1.28;71.97
70521;BME280;58442;52.716;23.560;2023-01-29T12:16:55;101630.49;;;1.24;72.04
70521;BME280;58442;52.716;23.560;2023-01-29T12:25:54;101614.67;;;1.23;72.27
70521;BME280;58442;52.716;23.560;2023-01-29T12:28:14;101614.94;;;1.21;72.37
70521;BME280;58442;52.716;23.560;2023-01-29T12:39:50;101615.50;;;1.28;72.43
70521;BME280;58442;52.716;23.560;2023-01-29T12:42:01;101613.09;;;1.27;72.52
70521;BME280;58442;52.716;23.560;2023-01-29T12:44:53;101621.39;;;1.25;72.64
70521;BME280;58442;52.716;23.560;2023-01-29T12:46:38;101620.05;;;1.28;72.70
70521;BME280;58442;52.716;23.560;2023-01-29T12:48:32;101614.18;;;1.31;72.63
70521;BME280;58442;52.716;23.560;2023-01-29T12:50:37;101613.63;;;1.29;72.60
70521;BME280;58442;52.716;23.560;2023-01-29T12:52:42;101609.61;;;1.26;72.65
70521;BME280;58442;52.716;23.560;2023-01-29T12:55:01;101611.48;;;1.26;72.73
70521;BME280;58442;52.716;23.560;2023-01-29T12:57:00;101602.35;;;1.22;72.75
70521;BME280;58442;52.716;23.560;2023-01-29T13:01:26;101596.47;;;1.20;72.82
70521;BME280;58442;52.716;23.560;2023-01-29T13:06:04;101595.94;;;1.18;72.89
70521;BME280;58442;52.716;23.560;2023-01-29T13:13:03;101598.31;;;1.14;73.05
70521;BME280;58442;52.716;23.560;2023-01-29T13:17:25;101590.28;;;1.14;73.35
70521;BME280;58442;52.716;23.560;2023-01-29T13:19:32;101589.77;;;1.17;73.14
70521;BME280;58442;52.716;23.560;2023-01-29T13:21:39;101592.19;;;1.19;73.08
70521;BME280;58442;52.716;23.560;2023-01-29T13:26:05;101588.44;;;1.20;73.09
70521;BME280;58442;52.716;23.560;2023-01-29T13:30:27;101583.58;;;1.17;73.14
70521;BME280;58442;52.716;23.560;2023-01-29T13:32:31;101589.48;;;1.14;73.23
70521;BME280;58442;52.716;23.560;2023-01-29T13:34:36;101580.10;;;1.16;73.24